Terminal Aerodrome Forecast
Issued by NWS Indianapolis, IN

Current Version | Previous Version | Text Only | Print | Product List | Glossary On
Versions: 1 2 3 4 5 6 7 8 9 10 11 12 13 14 15 16 17 18 19 20 21 22 23
847
FTUS43 KIND 271543 AAA
TAFIND
TAF AMD
KIND 271543Z 2716/2818 24016KT P6SM OVC015
     FM271800 24014KT P6SM BKN020
     FM272200 24013KT P6SM BKN035
     FM280000 24010KT P6SM SCT035
     FM280200 23007KT P6SM SCT035
     FM281400 15008KT P6SM BKN090=

USA.gov is the U.S. government's official web portal to all federal, state and local government web resources and services.